Time;durP1;ratioP1;P1;durP2;ratioP2;P2;SDS_P1;SDS_P2;PMS_P1;PMS_P2;Temp;Humidity;BMP_temperature;BMP_pressure;BME280_temperature;BME280_humidity;BME280_pressure;Samples;Min_cycle;Max_cycle;Signal;HPM_P1;HPM_P2
2023/11/13 00:00:18;;;;;;;2.67;2.30;;;20.70;57.00;;;;;;5029921;28;20187;-69
2023/11/13 00:02:44;;;;;;;3.30;2.20;;;20.80;57.10;;;;;;5029522;28;20204;-69
2023/11/13 00:05:10;;;;;;;2.90;2.30;;;20.80;57.10;;;;;;5029951;28;20538;-69
2023/11/13 00:07:36;;;;;;;2.53;2.10;;;20.70;57.00;;;;;;5033252;28;20171;-68
2023/11/13 00:10:02;;;;;;;4.47;2.60;;;20.70;57.00;;;;;;5033307;28;20406;-69
2023/11/13 00:12:28;;;;;;;2.53;2.20;;;20.70;57.00;;;;;;5033264;28;20406;-69
2023/11/13 00:14:54;;;;;;;2.40;2.20;;;20.80;57.10;;;;;;5033157;28;20414;-68
2023/11/13 00:17:19;;;;;;;2.90;2.17;;;20.80;57.10;;;;;;5032979;28;20294;-69
2023/11/13 00:19:45;;;;;;;3.23;2.40;;;20.70;57.00;;;;;;5033390;28;20182;-69
2023/11/13 00:22:10;;;;;;;2.73;2.40;;;20.80;57.20;;;;;;5033059;28;20521;-69
2023/11/13 00:24:36;;;;;;;2.70;2.50;;;20.70;57.00;;;;;;5033039;28;20168;-69
2023/11/13 00:27:03;;;;;;;2.60;2.33;;;20.80;57.10;;;;;;5032980;28;20194;-68
2023/11/13 00:29:28;;;;;;;3.20;2.50;;;20.70;57.10;;;;;;5033010;28;20164;-69
2023/11/13 00:31:54;;;;;;;2.60;2.40;;;20.70;57.00;;;;;;5032895;28;20403;-68
2023/11/13 00:34:19;;;;;;;2.97;2.57;;;20.70;57.10;;;;;;5031487;28;20210;-69
2023/11/13 00:36:50;;;;;;;2.73;2.53;;;20.80;57.20;;;;;;5032682;28;20196;-69
2023/11/13 00:39:17;;;;;;;2.53;2.17;;;20.70;57.10;;;;;;5032758;28;20172;-69
2023/11/13 00:41:42;;;;;;;2.20;2.00;;;20.70;57.10;;;;;;5032734;28;20521;-68
2023/11/13 00:44:08;;;;;;;2.60;2.30;;;20.70;57.10;;;;;;5032606;28;20466;-69
2023/11/13 00:46:33;;;;;;;2.30;2.10;;;20.80;57.20;;;;;;5032750;28;20278;-69
2023/11/13 00:48:59;;;;;;;2.73;2.53;;;20.70;57.10;;;;;;5032603;28;20213;-69
2023/11/13 00:51:24;;;;;;;2.83;2.20;;;20.70;57.10;;;;;;5032474;28;20167;-70
2023/11/13 00:53:50;;;;;;;2.53;2.33;;;20.70;57.10;;;;;;5032431;28;20693;-69
2023/11/13 00:56:16;;;;;;;2.80;2.37;;;20.70;57.10;;;;;;5032310;28;20242;-68
2023/11/13 00:58:42;;;;;;;2.63;2.20;;;20.70;57.10;;;;;;5032349;28;20176;-69
2023/11/13 01:01:10;;;;;;;2.20;2.00;;;20.70;57.10;;;;;;5032354;28;20468;-69
2023/11/13 01:03:36;;;;;;;2.80;2.50;;;20.70;57.10;;;;;;5032166;28;20462;-69
2023/11/13 01:06:02;;;;;;;2.70;2.20;;;20.70;57.10;;;;;;5032154;28;20418;-68
2023/11/13 01:08:28;;;;;;;2.27;2.07;;;20.70;57.10;;;;;;5032174;28;20407;-69
2023/11/13 01:10:54;;;;;;;2.47;2.07;;;20.70;57.10;;;;;;5032155;28;20433;-69
2023/11/13 01:13:20;;;;;;;2.73;2.53;;;20.70;57.10;;;;;;5032384;28;20263;-68
2023/11/13 01:15:48;;;;;;;2.97;2.77;;;20.70;57.10;;;;;;5031949;28;20195;-69
2023/11/13 01:18:17;;;;;;;3.60;2.20;;;20.70;57.10;;;;;;5031952;28;20455;-68
2023/11/13 01:20:46;;;;;;;2.87;2.60;;;20.70;57.10;;;;;;5031939;28;20419;-69
2023/11/13 01:23:12;;;;;;;2.50;2.30;;;20.70;57.10;;;;;;5031926;28;20867;-69
2023/11/13 01:25:38;;;;;;;2.50;2.30;;;20.70;57.10;;;;;;5031844;28;20434;-69
2023/11/13 01:28:04;;;;;;;2.53;1.90;;;20.70;57.10;;;;;;5031819;28;20487;-69
2023/11/13 01:30:30;;;;;;;2.43;2.20;;;20.70;57.10;;;;;;5031802;28;20544;-68
2023/11/13 01:32:55;;;;;;;4.23;2.60;;;20.70;57.10;;;;;;5031809;28;20497;-69
2023/11/13 01:35:21;;;;;;;2.33;2.13;;;20.70;57.10;;;;;;5031687;28;20171;-68
2023/11/13 01:37:47;;;;;;;2.20;1.93;;;20.70;57.10;;;;;;5031645;28;20693;-68
2023/11/13 01:40:12;;;;;;;2.27;2.07;;;20.70;57.10;;;;;;5031602;28;20307;-68
2023/11/13 01:42:39;;;;;;;2.30;2.10;;;20.70;57.10;;;;;;5031584;28;21015;-69
2023/11/13 01:45:06;;;;;;;2.30;2.10;;;20.70;57.10;;;;;;5031774;28;20254;-70
2023/11/13 01:47:32;;;;;;;2.77;2.20;;;20.70;57.10;;;;;;5031436;28;20433;-68
2023/11/13 01:49:58;;;;;;;2.40;2.20;;;20.70;57.10;;;;;;5030091;28;20414;-70
2023/11/13 01:52:25;;;;;;;2.30;2.00;;;20.70;57.10;;;;;;5031395;28;20223;-68
2023/11/13 01:54:51;;;;;;;3.20;2.10;;;20.70;57.10;;;;;;5031351;28;20847;-68
2023/11/13 01:57:16;;;;;;;2.80;2.47;;;20.70;57.10;;;;;;5031406;28;20437;-69
2023/11/13 01:59:44;;;;;;;2.20;2.00;;;20.70;57.20;;;;;;5031192;28;20555;-69
2023/11/13 02:02:10;;;;;;;2.23;2.03;;;20.70;57.10;;;;;;5031097;28;20182;-68
2023/11/13 02:04:36;;;;;;;3.10;2.60;;;20.70;57.20;;;;;;5031171;28;20403;-68
2023/11/13 02:07:03;;;;;;;2.23;1.87;;;20.70;57.20;;;;;;5031059;28;20783;-68
2023/11/13 02:09:30;;;;;;;2.23;2.03;;;20.70;57.20;;;;;;5031044;28;20525;-68
2023/11/13 02:11:56;;;;;;;2.17;1.90;;;20.70;57.20;;;;;;5029672;28;20421;-68
2023/11/13 02:14:22;;;;;;;3.20;2.03;;;20.70;57.20;;;;;;5030956;28;20821;-69
2023/11/13 02:16:48;;;;;;;1.83;1.73;;;20.70;57.70;;;;;;5030679;28;20223;-68
2023/11/13 02:19:17;;;;;;;2.40;1.93;;;20.70;57.20;;;;;;5030845;28;20422;-69
2023/11/13 02:21:43;;;;;;;2.10;1.90;;;20.70;57.20;;;;;;5029493;28;20179;-69
2023/11/13 02:24:12;;;;;;;2.20;2.00;;;20.70;57.20;;;;;;5030718;28;20533;-69
2023/11/13 02:26:38;;;;;;;2.10;1.67;;;20.70;57.20;;;;;;5030625;28;20422;-69
2023/11/13 02:29:05;;;;;;;2.23;2.00;;;20.70;57.30;;;;;;5030601;28;20910;-69
2023/11/13 02:31:30;;;;;;;2.20;1.70;;;20.70;57.30;;;;;;5029456;28;20542;-70
2023/11/13 02:33:56;;;;;;;2.67;2.17;;;20.70;57.20;;;;;;5030600;28;20211;-69
2023/11/13 02:36:22;;;;;;;2.20;2.00;;;20.70;57.20;;;;;;5030454;28;20820;-69
2023/11/13 02:38:47;;;;;;;2.33;2.13;;;20.70;57.20;;;;;;5030206;28;20183;-69
2023/11/13 02:41:13;;;;;;;1.90;1.70;;;20.70;57.20;;;;;;5029709;28;20175;-68
2023/11/13 02:43:39;;;;;;;2.30;1.87;;;20.70;57.20;;;;;;5048431;28;20662;-68
2023/11/13 02:46:05;;;;;;;2.20;1.97;;;20.70;57.20;;;;;;5048432;28;20533;-68
2023/11/13 02:48:32;;;;;;;2.00;1.80;;;20.70;57.20;;;;;;5049579;28;20175;-68
2023/11/13 02:50:58;;;;;;;2.00;1.80;;;20.70;57.20;;;;;;5049997;28;20293;-69
2023/11/13 02:53:23;;;;;;;2.20;1.97;;;20.70;57.20;;;;;;5050030;28;20451;-69
2023/11/13 02:55:51;;;;;;;2.23;1.93;;;20.70;57.20;;;;;;5050025;28;20199;-69
2023/11/13 02:58:17;;;;;;;2.23;2.03;;;20.70;57.20;;;;;;5050171;28;20206;-67
2023/11/13 03:00:43;;;;;;;2.07;1.87;;;20.70;57.20;;;;;;5050052;28;20444;-69
2023/11/13 03:03:08;;;;;;;2.10;1.90;;;20.70;57.20;;;;;;5050261;28;20489;-69
2023/11/13 03:05:34;;;;;;;2.30;2.07;;;20.70;57.20;;;;;;5049981;28;20701;-70
2023/11/13 03:07:59;;;;;;;1.97;1.63;;;20.70;57.20;;;;;;5049963;28;20213;-69
2023/11/13 03:10:25;;;;;;;1.97;1.60;;;20.60;57.10;;;;;;5049952;28;20175;-69
2023/11/13 03:12:51;;;;;;;2.00;1.70;;;20.60;57.20;;;;;;5049981;28;20650;-69
2023/11/13 03:15:17;;;;;;;1.70;1.43;;;20.70;57.20;;;;;;5050035;28;20266;-69
2023/11/13 03:17:42;;;;;;;1.67;1.57;;;20.70;57.20;;;;;;5049651;28;20190;-69
2023/11/13 03:20:09;;;;;;;2.17;1.97;;;20.70;57.20;;;;;;5049861;28;20175;-69
2023/11/13 03:22:34;;;;;;;2.10;1.90;;;20.70;57.20;;;;;;5049586;28;20916;-69
2023/11/13 03:25:00;;;;;;;1.97;1.77;;;20.60;57.20;;;;;;5049597;28;20516;-68
2023/11/13 03:27:26;;;;;;;2.13;1.90;;;20.70;57.20;;;;;;5049599;28;20191;-69
2023/11/13 03:29:52;;;;;;;2.33;1.90;;;20.70;57.20;;;;;;5049656;28;20177;-69
2023/11/13 03:32:17;;;;;;;2.07;1.80;;;20.70;57.20;;;;;;5049594;28;20696;-69
2023/11/13 03:34:44;;;;;;;2.80;2.13;;;20.70;57.30;;;;;;5048276;28;20564;-68
2023/11/13 03:37:10;;;;;;;1.90;1.80;;;20.70;57.20;;;;;;5048077;28;20293;-69
2023/11/13 03:39:36;;;;;;;2.13;1.93;;;20.70;57.20;;;;;;5050734;28;20445;-69
2023/11/13 03:42:02;;;;;;;3.20;1.80;;;20.60;57.20;;;;;;5053485;28;20262;-67
2023/11/13 03:44:28;;;;;;;2.30;2.07;;;20.70;57.20;;;;;;5053414;28;20891;-69
2023/11/13 03:46:53;;;;;;;2.20;2.00;;;20.70;57.30;;;;;;5053373;28;20505;-69
2023/11/13 03:49:19;;;;;;;1.60;1.50;;;20.70;57.20;;;;;;5053497;28;20533;-69
2023/11/13 03:51:45;;;;;;;1.60;1.50;;;20.70;57.20;;;;;;5052349;28;20175;-69
2023/11/13 03:54:10;;;;;;;2.13;1.57;;;20.70;57.20;;;;;;5053446;28;20235;-69
2023/11/13 03:56:36;;;;;;;1.60;1.50;;;20.70;57.20;;;;;;5053245;28;20187;-68
2023/11/13 03:59:02;;;;;;;2.30;1.70;;;20.70;57.30;;;;;;5053306;28;20593;-69
2023/11/13 04:01:27;;;;;;;2.43;2.20;;;20.70;57.20;;;;;;5053267;28;20171;-69
2023/11/13 04:03:53;;;;;;;2.67;1.90;;;20.70;57.20;;;;;;5053199;28;20198;-69
2023/11/13 04:06:19;;;;;;;2.23;2.03;;;20.70;57.30;;;;;;5053139;28;20256;-70
2023/11/13 04:08:44;;;;;;;2.23;1.90;;;20.70;57.30;;;;;;5053139;28;20195;-69
2023/11/13 04:11:10;;;;;;;1.87;1.60;;;20.70;57.20;;;;;;5053117;28;20171;-69
2023/11/13 04:13:36;;;;;;;2.30;2.10;;;20.70;57.30;;;;;;5053002;28;20175;-70
2023/11/13 04:16:02;;;;;;;2.13;1.50;;;20.60;57.20;;;;;;5052902;28;20226;-69
2023/11/13 04:18:29;;;;;;;1.70;1.53;;;20.70;57.20;;;;;;5052927;28;20665;-70
2023/11/13 04:20:58;;;;;;;2.00;1.70;;;20.70;57.30;;;;;;5052900;28;20467;-69
2023/11/13 04:23:24;;;;;;;1.80;1.70;;;20.60;57.20;;;;;;5052785;28;20488;-68
2023/11/13 04:25:50;;;;;;;3.33;1.93;;;20.60;57.20;;;;;;5052755;28;20460;-69
2023/11/13 04:28:18;;;;;;;1.90;1.67;;;20.60;57.20;;;;;;5053103;28;20406;-69
2023/11/13 04:30:43;;;;;;;1.93;1.50;;;20.70;57.30;;;;;;5052770;28;20931;-69
2023/11/13 04:33:09;;;;;;;2.23;1.90;;;20.60;57.20;;;;;;5052613;28;20450;-69
2023/11/13 04:35:35;;;;;;;1.73;1.63;;;20.70;57.30;;;;;;5052567;28;20205;-68
2023/11/13 04:38:00;;;;;;;3.37;1.67;;;20.70;57.30;;;;;;5052582;28;20658;-69
2023/11/13 04:40:26;;;;;;;1.50;1.40;;;20.60;57.20;;;;;;5052550;28;20175;-69
2023/11/13 04:42:52;;;;;;;3.13;1.60;;;20.70;57.30;;;;;;5052396;28;20921;-69
2023/11/13 04:45:17;;;;;;;2.70;1.80;;;20.70;57.30;;;;;;5052366;28;20205;-67
2023/11/13 04:47:43;;;;;;;2.10;1.60;;;20.70;57.30;;;;;;5052368;28;20528;-69
2023/11/13 04:50:09;;;;;;;2.60;1.73;;;20.60;57.20;;;;;;5051907;28;20646;-70
2023/11/13 04:52:34;;;;;;;2.70;1.60;;;20.70;57.30;;;;;;5052357;28;20186;-69
2023/11/13 04:55:00;;;;;;;4.13;1.70;;;20.70;57.30;;;;;;5052248;28;20202;-69
2023/11/13 04:57:26;;;;;;;2.17;1.97;;;20.70;57.30;;;;;;5052387;28;20240;-68
2023/11/13 04:59:52;;;;;;;1.60;1.40;;;20.70;57.30;;;;;;5052088;28;20170;-69
2023/11/13 05:02:18;;;;;;;1.53;1.43;;;20.70;57.20;;;;;;5051995;28;20417;-69
2023/11/13 05:04:45;;;;;;;1.90;1.53;;;20.60;57.20;;;;;;5052070;28;20167;-68
2023/11/13 05:07:11;;;;;;;1.97;1.70;;;20.60;57.20;;;;;;5052248;28;20428;-68
2023/11/13 05:09:37;;;;;;;2.07;1.70;;;20.70;57.30;;;;;;5052224;28;20405;-69
2023/11/13 05:12:02;;;;;;;2.20;1.80;;;20.60;57.20;;;;;;5051972;28;20217;-69
2023/11/13 05:14:28;;;;;;;2.20;1.60;;;20.70;57.30;;;;;;5051930;28;20173;-69
2023/11/13 05:16:57;;;;;;;1.90;1.70;;;20.70;57.30;;;;;;5051435;28;20209;-68
2023/11/13 05:19:23;;;;;;;1.93;1.83;;;20.60;57.20;;;;;;5052012;28;20159;-68
2023/11/13 05:21:49;;;;;;;2.03;1.60;;;20.70;57.30;;;;;;5051848;28;20946;-70
2023/11/13 05:24:15;;;;;;;1.83;1.40;;;20.70;57.30;;;;;;5051704;28;20464;-68
2023/11/13 05:26:40;;;;;;;1.90;1.57;;;20.60;57.20;;;;;;5051674;28;20201;-70
2023/11/13 05:29:06;;;;;;;1.83;1.50;;;20.60;57.80;;;;;;5051387;28;20565;-69
2023/11/13 05:31:32;;;;;;;4.13;1.60;;;20.60;57.20;;;;;;5051662;28;20229;-69
2023/11/13 05:33:57;;;;;;;2.10;1.30;;;20.60;57.20;;;;;;5051550;28;20171;-69
2023/11/13 05:36:23;;;;;;;2.60;1.90;;;20.70;57.30;;;;;;5051463;28;20198;-69
2023/11/13 05:38:49;;;;;;;2.10;1.90;;;20.60;57.20;;;;;;5051407;28;20649;-70
2023/11/13 05:41:15;;;;;;;1.47;1.37;;;20.60;57.20;;;;;;5051356;28;20167;-69
2023/11/13 05:43:40;;;;;;;1.70;1.53;;;20.60;57.20;;;;;;5051672;28;20234;-70
2023/11/13 05:46:07;;;;;;;2.20;1.87;;;20.60;57.20;;;;;;5051476;28;20637;-69
2023/11/13 05:48:33;;;;;;;2.53;1.77;;;20.60;57.30;;;;;;5051168;28;20171;-69
2023/11/13 05:50:59;;;;;;;2.10;1.50;;;20.60;57.10;;;;;;5051201;28;20713;-69
2023/11/13 05:53:24;;;;;;;2.63;1.93;;;20.60;57.10;;;;;;5051144;28;20179;-68
2023/11/13 05:55:50;;;;;;;2.33;1.90;;;20.60;57.20;;;;;;5051018;28;20429;-69
2023/11/13 05:58:16;;;;;;;2.70;2.03;;;20.60;57.20;;;;;;5051067;28;20551;-70
2023/11/13 06:00:43;;;;;;;3.23;2.93;;;20.60;57.10;;;;;;5051052;28;20179;-70
2023/11/13 06:03:09;;;;;;;1.73;1.63;;;20.70;57.20;;;;;;5050154;28;20271;-70
2023/11/13 06:05:34;;;;;;;2.20;1.87;;;20.60;57.20;;;;;;5050918;28;20437;-69
2023/11/13 06:08:00;;;;;;;3.77;2.50;;;20.70;57.20;;;;;;5050894;28;20171;-68
2023/11/13 06:10:26;;;;;;;2.33;1.87;;;20.70;57.20;;;;;;5050806;28;20653;-69
2023/11/13 06:12:52;;;;;;;1.90;1.70;;;20.60;57.20;;;;;;5051156;28;20167;-70
2023/11/13 06:15:18;;;;;;;2.10;1.50;;;20.60;57.20;;;;;;5051264;28;20174;-70
2023/11/13 06:17:45;;;;;;;2.90;2.00;;;20.60;57.20;;;;;;5051424;28;20455;-69
2023/11/13 06:20:14;;;;;;;2.67;1.90;;;20.60;57.20;;;;;;5051146;28;20198;-70
2023/11/13 06:22:41;;;;;;;2.40;1.90;;;20.70;57.20;;;;;;5051285;28;20548;-69
2023/11/13 06:25:09;;;;;;;2.00;1.80;;;20.60;57.70;;;;;;5051198;28;20409;-69
2023/11/13 06:27:34;;;;;;;2.17;1.97;;;20.70;57.30;;;;;;5051327;28;20475;-69
2023/11/13 06:30:00;;;;;;;3.53;1.70;;;20.70;57.30;;;;;;5051260;28;20827;-68
2023/11/13 06:32:28;;;;;;;2.03;1.53;;;20.60;57.20;;;;;;5051431;28;20554;-69
2023/11/13 06:34:54;;;;;;;2.57;2.13;;;20.70;57.30;;;;;;5051110;28;20586;-69
2023/11/13 06:37:19;;;;;;;2.27;1.73;;;20.70;57.80;;;;;;5049425;28;20495;-69
2023/11/13 06:39:45;;;;;;;2.03;1.70;;;20.70;57.30;;;;;;5051020;28;20179;-69
2023/11/13 06:42:10;;;;;;;2.30;2.10;;;20.70;57.30;;;;;;5049472;28;20324;-70
2023/11/13 06:44:36;;;;;;;2.53;1.60;;;20.70;57.30;;;;;;5050928;28;20163;-68
2023/11/13 06:47:02;;;;;;;2.67;2.20;;;20.70;57.30;;;;;;5033652;28;20195;-68
2023/11/13 06:49:28;;;;;;;2.63;2.13;;;20.70;57.20;;;;;;5051208;28;20171;-69
2023/11/13 06:51:53;;;;;;;3.20;1.80;;;20.70;57.20;;;;;;5050752;28;20775;-69
2023/11/13 06:54:20;;;;;;;2.40;2.10;;;20.70;57.20;;;;;;5050625;28;20177;-70
2023/11/13 06:56:46;;;;;;;3.10;2.27;;;20.70;57.20;;;;;;5050640;28;20198;-70
2023/11/13 06:59:12;;;;;;;2.13;1.80;;;20.70;57.20;;;;;;5050745;28;20760;-71
2023/11/13 07:01:40;;;;;;;1.93;1.60;;;20.70;57.20;;;;;;5050603;28;20412;-70
2023/11/13 07:04:07;;;;;;;2.17;1.93;;;20.70;57.20;;;;;;5050511;28;20580;-69
2023/11/13 07:06:33;;;;;;;2.20;2.00;;;20.80;57.30;;;;;;5050672;28;20865;-71
2023/11/13 07:09:01;;;;;;;3.07;2.10;;;20.80;57.30;;;;;;5050871;28;20492;-70
2023/11/13 07:11:26;;;;;;;2.03;1.77;;;20.80;57.30;;;;;;5050149;28;20254;-70
2023/11/13 07:13:52;;;;;;;1.80;1.70;;;20.80;57.30;;;;;;5050536;28;20996;-71
2023/11/13 07:16:20;;;;;;;2.47;1.83;;;20.80;57.20;;;;;;5050543;28;20212;-70
2023/11/13 07:18:46;;;;;;;1.87;1.43;;;20.80;57.30;;;;;;5050924;28;20428;-70
2023/11/13 07:21:12;;;;;;;2.90;2.57;;;20.80;57.30;;;;;;5050796;28;20999;-70
2023/11/13 07:23:37;;;;;;;1.70;1.60;;;20.80;57.80;;;;;;5050249;28;20203;-69
2023/11/13 07:26:04;;;;;;;2.10;1.90;;;20.80;57.20;;;;;;5050370;28;20194;-70
2023/11/13 07:28:30;;;;;;;1.83;1.73;;;20.80;57.20;;;;;;5048821;28;20700;-69
2023/11/13 07:30:56;;;;;;;2.10;1.90;;;20.80;57.20;;;;;;5050580;28;20417;-69
2023/11/13 07:33:21;;;;;;;1.97;1.80;;;20.80;57.20;;;;;;5050316;28;20178;-70
2023/11/13 07:35:47;;;;;;;3.03;1.97;;;20.80;57.20;;;;;;5050436;28;20696;-70
2023/11/13 07:38:12;;;;;;;2.43;2.23;;;20.80;57.20;;;;;;5050310;28;20566;-69
2023/11/13 07:40:38;;;;;;;2.00;1.80;;;20.80;57.20;;;;;;5050718;28;20167;-69
2023/11/13 07:43:05;;;;;;;1.90;1.70;;;20.80;57.20;;;;;;5050350;28;20195;-70
2023/11/13 07:45:31;;;;;;;2.27;2.07;;;20.80;57.20;;;;;;5050180;28;20183;-70
2023/11/13 07:47:56;;;;;;;4.87;2.00;;;20.80;57.20;;;;;;5049884;28;20413;-69
2023/11/13 07:50:23;;;;;;;2.60;1.77;;;20.80;57.20;;;;;;5049671;28;20646;-71
2023/11/13 07:52:50;;;;;;;2.63;2.07;;;20.90;57.30;;;;;;5049799;28;20171;-69
2023/11/13 07:55:18;;;;;;;2.27;2.07;;;20.90;57.30;;;;;;5049975;28;20421;-70
2023/11/13 07:57:44;;;;;;;1.90;1.60;;;20.90;57.30;;;;;;5049692;28;20415;-70
2023/11/13 08:00:11;;;;;;;2.10;1.90;;;20.80;57.20;;;;;;5049665;28;20428;-69
2023/11/13 08:02:42;;;;;;;3.40;1.90;;;20.90;57.30;;;;;;5049520;28;20477;-70
2023/11/13 08:05:11;;;;;;;3.13;2.00;;;20.80;57.20;;;;;;5049591;28;20381;-70
2023/11/13 08:07:42;;;;;;;3.67;2.33;;;20.90;57.80;;;;;;5048418;28;20783;-70
2023/11/13 08:10:14;;;;;;;2.40;1.60;;;20.90;57.30;;;;;;5049604;28;20409;-70
2023/11/13 08:12:43;;;;;;;2.20;1.80;;;20.80;57.20;;;;;;5051011;28;20406;-68
2023/11/13 08:15:13;;;;;;;2.83;1.63;;;20.90;57.30;;;;;;5050964;28;21173;-69
2023/11/13 08:17:43;;;;;;;3.27;1.83;;;20.90;57.30;;;;;;5050834;28;20433;-70
2023/11/13 08:20:13;;;;;;;2.47;2.03;;;20.80;57.20;;;;;;5050904;28;20400;-68
2023/11/13 08:22:41;;;;;;;5.10;2.03;;;20.90;57.30;;;;;;5050734;28;20453;-70
2023/11/13 08:25:11;;;;;;;2.47;1.90;;;20.90;57.30;;;;;;5050806;28;20416;-70
2023/11/13 08:27:42;;;;;;;2.10;1.60;;;20.90;57.30;;;;;;5054115;28;20765;-70
2023/11/13 08:30:08;;;;;;;2.60;1.83;;;20.90;57.40;;;;;;5052700;28;20972;-70
2023/11/13 08:32:34;;;;;;;3.07;2.07;;;20.90;57.40;;;;;;5054459;28;20437;-70
2023/11/13 08:35:01;;;;;;;3.30;1.80;;;20.90;57.30;;;;;;5054095;28;20488;-73
2023/11/13 08:37:27;;;;;;;2.30;1.87;;;20.90;57.30;;;;;;5053739;28;20430;-70
2023/11/13 08:39:53;;;;;;;2.77;1.97;;;20.90;57.50;;;;;;5054040;28;20792;-71
2023/11/13 08:42:19;;;;;;;2.50;1.70;;;20.90;57.20;;;;;;5053561;28;20175;-69
2023/11/13 08:44:45;;;;;;;4.77;1.67;;;20.90;57.20;;;;;;5053889;28;20623;-68
2023/11/13 08:47:10;;;;;;;2.20;1.80;;;20.90;57.10;;;;;;5053655;28;20425;-70
2023/11/13 08:49:41;;;;;;;2.40;2.03;;;20.90;57.10;;;;;;5053934;28;20179;-70
2023/11/13 08:52:08;;;;;;;3.70;2.60;;;20.80;57.00;;;;;;5053693;28;20529;-70
2023/11/13 08:54:35;;;;;;;2.13;1.90;;;20.80;56.90;;;;;;5053047;28;20535;-70
2023/11/13 08:57:06;;;;;;;2.43;2.00;;;20.80;56.90;;;;;;5052711;28;20437;-70
2023/11/13 08:59:35;;;;;;;3.10;1.63;;;20.80;56.90;;;;;;5052897;28;20443;-69
2023/11/13 09:02:05;;;;;;;2.07;1.50;;;20.80;56.90;;;;;;5052831;28;20852;-70
2023/11/13 09:04:34;;;;;;;2.10;1.40;;;20.80;56.90;;;;;;5052816;28;20487;-70
2023/11/13 09:07:07;;;;;;;3.17;1.73;;;20.80;56.90;;;;;;5052400;28;20422;-68
2023/11/13 09:09:33;;;;;;;2.17;1.73;;;20.80;56.90;;;;;;5052332;28;20394;-70
2023/11/13 09:12:01;;;;;;;3.27;1.70;;;20.80;56.90;;;;;;5052472;28;20405;-68
2023/11/13 09:14:27;;;;;;;2.67;1.50;;;20.80;56.90;;;;;;5052394;28;20417;-70
2023/11/13 09:16:53;;;;;;;2.43;1.53;;;20.80;57.00;;;;;;5052057;28;20455;-70
2023/11/13 09:19:19;;;;;;;2.43;1.50;;;20.80;57.00;;;;;;5052340;28;20273;-70
2023/11/13 09:21:45;;;;;;;1.60;1.30;;;20.80;56.90;;;;;;5052153;28;20493;-69
2023/11/13 09:24:13;;;;;;;2.70;1.67;;;20.80;57.00;;;;;;5050680;28;21068;-69
2023/11/13 09:26:40;;;;;;;1.50;1.40;;;20.80;57.00;;;;;;5051947;28;21030;-70
2023/11/13 09:29:06;;;;;;;2.23;1.77;;;20.80;57.60;;;;;;5051844;28;20413;-70
2023/11/13 09:31:31;;;;;;;2.07;1.80;;;20.80;57.00;;;;;;5052005;28;20398;-71
2023/11/13 09:33:57;;;;;;;2.93;1.70;;;20.80;57.00;;;;;;5051824;28;20261;-69
2023/11/13 09:36:22;;;;;;;2.17;1.97;;;20.80;56.90;;;;;;5051377;28;20198;-70
2023/11/13 09:38:53;;;;;;;2.90;1.60;;;20.80;57.00;;;;;;5050933;28;20175;-70
2023/11/13 09:41:25;;;;;;;1.83;1.50;;;20.80;57.00;;;;;;5051759;28;20168;-69
2023/11/13 09:43:51;;;;;;;2.00;1.60;;;20.80;57.00;;;;;;5052052;28;20456;-70
2023/11/13 09:46:20;;;;;;;2.43;1.57;;;20.80;57.00;;;;;;5051454;28;20850;-70
2023/11/13 09:48:51;;;;;;;4.47;2.27;;;20.80;57.00;;;;;;5051578;28;20413;-70
2023/11/13 09:51:24;;;;;;;1.60;1.50;;;20.80;57.00;;;;;;5051545;28;20394;-71
2023/11/13 09:53:50;;;;;;;3.20;1.83;;;20.80;57.00;;;;;;5051454;28;20388;-69
2023/11/13 09:56:17;;;;;;;3.70;1.77;;;20.80;57.60;;;;;;5051303;28;20433;-70
2023/11/13 09:58:44;;;;;;;3.13;2.03;;;20.80;57.10;;;;;;5051369;28;20424;-70
2023/11/13 10:01:13;;;;;;;2.50;1.63;;;20.80;57.00;;;;;;5051272;28;20825;-70
2023/11/13 10:03:38;;;;;;;2.93;1.50;;;20.80;57.00;;;;;;5051397;28;20548;-69
2023/11/13 10:06:13;;;;;;;2.27;1.90;;;20.80;57.00;;;;;;5049870;28;20982;-71
2023/11/13 10:08:46;;;;;;;2.03;1.47;;;20.80;57.00;;;;;;5051419;28;20155;-69
2023/11/13 10:11:13;;;;;;;1.63;1.40;;;20.80;57.00;;;;;;5051458;28;20753;-71
2023/11/13 10:13:39;;;;;;;2.53;1.50;;;20.80;57.10;;;;;;5051369;28;20508;-69
2023/11/13 10:16:22;;;;;;;3.77;1.40;;;20.80;57.10;;;;;;5051208;28;21000;-70
2023/11/13 10:18:49;;;;;;;2.40;1.67;;;20.80;57.20;;;;;;5051185;28;20584;-70
2023/11/13 10:21:33;;;;;;;1.77;1.40;;;20.80;57.20;;;;;;5051327;28;20409;-69
2023/11/13 10:24:15;;;;;;;2.13;1.60;;;20.80;57.20;;;;;;5051053;28;20871;-70
2023/11/13 10:26:41;;;;;;;2.70;1.50;;;20.80;57.20;;;;;;5051364;28;20433;-70
2023/11/13 10:29:39;;;;;;;1.70;1.60;;;20.80;57.20;;;;;;5051052;28;20958;-70
2023/11/13 10:32:05;;;;;;;2.00;1.70;;;20.80;57.20;;;;;;5038726;28;20513;-70
2023/11/13 10:34:45;;;;;;;1.60;1.50;;;20.80;57.20;;;;;;5051244;28;20547;-70
2023/11/13 10:37:12;;;;;;;2.83;1.47;;;20.80;57.20;;;;;;5051010;28;20428;-70
2023/11/13 10:39:42;;;;;;;2.70;1.70;;;20.80;57.20;;;;;;5050725;28;20402;-70
2023/11/13 10:42:22;;;;;;;2.00;1.43;;;20.80;57.20;;;;;;5051207;28;20410;-70
2023/11/13 10:44:58;;;;;;;1.90;1.70;;;20.80;57.20;;;;;;5051045;28;20409;-70
2023/11/13 10:47:30;;;;;;;2.67;1.70;;;20.80;57.20;;;;;;5050915;28;20504;-68
2023/11/13 10:49:58;;;;;;;2.73;1.80;;;20.80;57.30;;;;;;5050947;28;20401;-69
2023/11/13 10:52:27;;;;;;;1.33;1.20;;;20.80;57.20;;;;;;5050984;28;20401;-68
2023/11/13 10:54:56;;;;;;;2.10;1.87;;;20.90;57.40;;;;;;5051279;28;20911;-70
2023/11/13 10:57:26;;;;;;;1.50;1.20;;;20.80;57.20;;;;;;5051032;28;21125;-69
2023/11/13 10:59:53;;;;;;;2.10;1.57;;;20.80;57.20;;;;;;5050886;28;20460;-69
2023/11/13 11:02:27;;;;;;;1.80;1.30;;;20.90;57.30;;;;;;5050776;28;20772;-69
2023/11/13 11:04:56;;;;;;;1.40;1.30;;;20.80;57.20;;;;;;5050628;28;20412;-70
2023/11/13 11:07:25;;;;;;;1.20;1.10;;;20.80;57.20;;;;;;5050714;28;20432;-69
2023/11/13 11:09:57;;;;;;;1.23;1.13;;;20.80;57.10;;;;;;5050461;28;20417;-71
2023/11/13 11:12:26;;;;;;;2.00;1.60;;;20.80;57.20;;;;;;5050797;28;20405;-70
2023/11/13 11:15:21;;;;;;;3.03;1.40;;;20.80;57.20;;;;;;5050621;28;20409;-69
2023/11/13 11:17:56;;;;;;;1.80;1.60;;;20.80;57.20;;;;;;5050696;28;20429;-70
2023/11/13 11:21:07;;;;;;;1.70;1.37;;;20.80;57.20;;;;;;5050882;28;20411;-69
2023/11/13 11:23:44;;;;;;;1.43;1.20;;;20.80;57.20;;;;;;5044756;28;20515;-69
2023/11/13 11:26:10;;;;;;;2.30;1.60;;;20.80;57.30;;;;;;5050219;28;20432;-69
2023/11/13 11:28:44;;;;;;;1.73;1.43;;;20.80;57.30;;;;;;5050497;28;20863;-69
2023/11/13 11:31:29;;;;;;;2.60;1.50;;;20.80;57.30;;;;;;5050347;28;20156;-70
2023/11/13 11:33:55;;;;;;;3.50;1.27;;;20.80;57.20;;;;;;5050316;28;20427;-69
2023/11/13 11:36:24;;;;;;;3.57;1.70;;;20.80;57.20;;;;;;5050264;28;20425;-68
2023/11/13 11:39:14;;;;;;;3.20;1.73;;;20.80;57.30;;;;;;5050663;28;20179;-70
2023/11/13 11:41:41;;;;;;;1.77;1.40;;;20.90;57.30;;;;;;5050305;28;20514;-68
2023/11/13 11:44:11;;;;;;;2.17;1.43;;;20.80;57.20;;;;;;5050372;28;20531;-70
2023/11/13 11:46:44;;;;;;;2.50;1.33;;;20.90;57.30;;;;;;5050257;28;20426;-70
2023/11/13 11:49:25;;;;;;;1.53;1.40;;;20.80;57.20;;;;;;5050284;28;20464;-70
2023/11/13 11:52:05;;;;;;;1.77;1.33;;;20.90;57.30;;;;;;5050514;28;20401;-69
2023/11/13 11:54:34;;;;;;;2.80;1.10;;;20.90;57.90;;;;;;5050439;28;20409;-69
2023/11/13 11:57:02;;;;;;;3.23;1.37;;;20.90;57.30;;;;;;5050186;28;20429;-69
2023/11/13 11:59:28;;;;;;;2.30;1.37;;;20.90;57.30;;;;;;5050308;28;20416;-69
2023/11/13 12:02:04;;;;;;;1.37;1.23;;;20.90;57.30;;;;;;5053888;28;20412;-69
2023/11/13 12:04:31;;;;;;;4.00;1.60;;;20.90;57.40;;;;;;5054415;28;20463;-69
2023/11/13 12:07:01;;;;;;;1.63;1.40;;;20.90;57.30;;;;;;5053942;28;20433;-69
2023/11/13 12:09:28;;;;;;;3.50;1.60;;;20.90;57.50;;;;;;5053556;28;20435;-70
2023/11/13 12:11:54;;;;;;;1.93;1.30;;;20.90;57.30;;;;;;5053891;28;20458;-69
2023/11/13 12:14:20;;;;;;;1.60;1.30;;;20.90;57.40;;;;;;5053802;28;20543;-68
2023/11/13 12:16:48;;;;;;;2.23;1.40;;;21.00;57.40;;;;;;5053747;28;20461;-68
2023/11/13 12:19:14;;;;;;;1.57;1.17;;;21.00;57.30;;;;;;5049750;28;20423;-69
2023/11/13 12:21:43;;;;;;;4.20;1.43;;;21.00;57.30;;;;;;5040291;28;20422;-68
2023/11/13 12:24:16;;;;;;;2.30;1.40;;;21.00;57.30;;;;;;5040942;28;20461;-68
2023/11/13 12:26:46;;;;;;;2.10;1.50;;;21.00;57.30;;;;;;5035781;28;20453;-69
2023/11/13 12:29:19;;;;;;;1.60;1.20;;;21.00;57.30;;;;;;5052602;28;20913;-69
2023/11/13 12:31:46;;;;;;;1.60;1.23;;;21.00;57.30;;;;;;5053333;28;20425;-69
2023/11/13 12:34:16;;;;;;;3.13;1.23;;;21.00;57.20;;;;;;5045602;28;20441;-69
2023/11/13 12:36:46;;;;;;;1.60;1.50;;;21.00;57.20;;;;;;5042272;28;20595;-69
2023/11/13 12:39:16;;;;;;;3.90;1.67;;;21.00;57.20;;;;;;5033980;28;20427;-69
2023/11/13 12:41:42;;;;;;;4.30;1.33;;;21.00;57.20;;;;;;5033887;28;20434;-68
2023/11/13 12:44:08;;;;;;;1.33;1.07;;;21.00;57.20;;;;;;5037077;28;20836;-69
2023/11/13 12:46:33;;;;;;;1.50;1.40;;;21.00;57.20;;;;;;5033811;28;20434;-68
2023/11/13 12:48:59;;;;;;;1.73;1.33;;;21.00;57.20;;;;;;5033479;28;20201;-69